Time;durP1;ratioP1;P1;durP2;ratioP2;P2;SDS_P1;SDS_P2;PMS_P1;PMS_P2;Temp;Humidity;BMP_temperature;BMP_pressure;BME280_temperature;BME280_humidity;BME280_pressure;Samples;Min_cycle;Max_cycle;Signal;HPM_P1;HPM_P2
2023/05/14 00:00:33;;;;;;;3.63;1.80;;;21.70;99.90;;;;;;5071711;28;20167;-74
2023/05/14 00:03:01;;;;;;;3.17;1.50;;;21.80;99.90;;;;;;5071330;28;20180;-73
2023/05/14 00:05:28;;;;;;;2.30;1.40;;;21.90;99.90;;;;;;5070757;28;20540;-70
2023/05/14 00:07:55;;;;;;;2.67;1.40;;;22.20;99.90;;;;;;5070880;28;20168;-71
2023/05/14 00:10:23;;;;;;;3.30;1.60;;;22.80;99.90;;;;;;5069459;28;20208;-69
2023/05/14 00:12:51;;;;;;;3.93;1.33;;;23.60;99.90;;;;;;5072250;28;20208;-73
2023/05/14 00:15:19;;;;;;;2.30;1.30;;;23.70;99.90;;;;;;5075185;28;20262;-71
2023/05/14 00:17:46;;;;;;;3.27;1.40;;;23.90;99.90;;;;;;5075129;28;20180;-71
2023/05/14 00:20:14;;;;;;;2.70;1.63;;;23.70;99.90;;;;;;5075132;28;20184;-71
2023/05/14 00:22:41;;;;;;;3.67;1.60;;;23.70;99.90;;;;;;5075345;28;20699;-70
2023/05/14 00:25:09;;;;;;;2.47;1.40;;;23.70;99.90;;;;;;5075426;28;20172;-72
2023/05/14 00:27:37;;;;;;;1.77;1.60;;;24.10;99.90;;;;;;5075172;28;20659;-70
2023/05/14 00:30:08;;;;;;;2.13;1.20;;;24.40;99.90;;;;;;5074907;28;20207;-70
2023/05/14 00:35:57;;;;;;;3.07;1.67;;;24.70;99.90;;;;;;5054333;28;20270;-71
2023/05/14 00:38:27;;;;;;;1.10;0.80;;;24.50;99.90;;;;;;5055702;28;20184;-71
2023/05/14 00:40:54;;;;;;;3.17;1.23;;;24.60;99.90;;;;;;5073445;28;20225;-71
2023/05/14 00:43:24;;;;;;;1.57;0.90;;;24.80;99.90;;;;;;5075015;28;20621;-71
2023/05/14 00:45:52;;;;;;;1.10;0.63;;;24.90;99.90;;;;;;5074889;28;20651;-71
2023/05/14 00:48:21;;;;;;;1.97;0.70;;;25.00;99.90;;;;;;5074842;28;20595;-71
2023/05/14 00:54:11;;;;;;;0.80;0.70;;;25.70;99.90;;;;;;5073407;28;20685;-70
2023/05/14 00:56:38;;;;;;;2.00;0.70;;;25.70;99.90;;;;;;5074242;28;20184;-70
2023/05/14 00:59:06;;;;;;;2.83;0.90;;;26.00;99.90;;;;;;5074487;28;20229;-69
2023/05/14 01:01:33;;;;;;;4.60;2.83;;;25.60;99.90;;;;;;5074445;28;20176;-71
2023/05/14 01:04:01;;;;;;;3.23;1.07;;;25.20;99.90;;;;;;5074273;28;20542;-69
2023/05/14 01:06:40;;;;;;;2.83;1.07;;;25.50;99.90;;;;;;5074067;28;20773;-71
2023/05/14 01:09:42;;;;;;;2.00;1.00;;;25.60;99.90;;;;;;5074323;28;20180;-70
2023/05/14 01:12:42;;;;;;;1.97;0.83;;;25.90;99.90;;;;;;5058593;28;20214;-70
2023/05/14 01:15:35;;;;;;;2.30;0.90;;;26.30;99.90;;;;;;5042424;28;20196;-70
2023/05/14 01:18:13;;;;;;;1.83;0.63;;;26.40;99.90;;;;;;5065946;28;20204;-71
2023/05/14 01:20:40;;;;;;;1.83;0.73;;;25.20;99.90;;;;;;5073997;28;20176;-70
2023/05/14 01:23:07;;;;;;;1.23;0.80;;;25.80;99.90;;;;;;5073994;28;20176;-71
2023/05/14 01:25:35;;;;;;;1.87;1.07;;;25.70;99.90;;;;;;5072216;28;20180;-71
2023/05/14 01:28:20;;;;;;;2.17;0.80;;;25.90;99.90;;;;;;5073691;28;20226;-71
2023/05/14 01:31:07;;;;;;;1.33;0.77;;;25.50;99.90;;;;;;5073517;28;20688;-70
2023/05/14 01:33:36;;;;;;;0.83;0.60;;;26.10;99.90;;;;;;5073668;28;20180;-69
2023/05/14 01:36:04;;;;;;;1.73;0.70;;;26.40;99.90;;;;;;5073228;28;20369;-71
2023/05/14 01:38:32;;;;;;;1.37;0.70;;;25.50;99.90;;;;;;5073187;28;20180;-71
2023/05/14 01:41:01;;;;;;;1.33;0.73;;;24.60;99.90;;;;;;5073697;28;20277;-72
2023/05/14 01:43:29;;;;;;;14.03;8.40;;;24.00;99.90;;;;;;5072551;28;20259;-72
2023/05/14 01:45:56;;;;;;;7.33;4.13;;;23.50;99.90;;;;;;5073086;28;20184;-71
2023/05/14 01:48:24;;;;;;;6.53;3.77;;;23.40;99.90;;;;;;5073450;28;20612;-72
2023/05/14 01:50:51;;;;;;;2.60;1.53;;;22.80;99.90;;;;;;5073114;28;20233;-72
2023/05/14 01:53:18;;;;;;;2.00;0.90;;;22.90;99.90;;;;;;5073112;28;20593;-73
2023/05/14 01:55:46;;;;;;;1.30;0.70;;;23.40;99.90;;;;;;5073259;28;20236;-73
2023/05/14 01:58:13;;;;;;;3.23;0.70;;;23.60;99.90;;;;;;5073174;28;20187;-72
2023/05/14 02:00:40;;;;;;;2.30;1.10;;;23.30;99.90;;;;;;5072877;28;20660;-71
2023/05/14 02:06:31;;;;;;;1.17;0.77;;;22.50;99.90;;;;;;5072454;28;20232;-70
2023/05/14 02:08:58;;;;;;;2.07;0.80;;;22.50;99.90;;;;;;5071786;28;20204;-72
2023/05/14 02:11:25;;;;;;;3.10;0.80;;;22.50;99.90;;;;;;5071265;28;20597;-71
2023/05/14 02:13:53;;;;;;;1.33;0.57;;;22.60;99.90;;;;;;5072613;28;20697;-70
2023/05/14 02:16:20;;;;;;;1.23;0.70;;;22.60;99.90;;;;;;5072794;28;20330;-71
2023/05/14 02:18:47;;;;;;;3.60;0.80;;;22.40;99.90;;;;;;5072823;28;20613;-71
2023/05/14 02:21:15;;;;;;;2.97;1.30;;;22.80;99.90;;;;;;5072994;28;20668;-70
2023/05/14 02:23:43;;;;;;;3.10;1.30;;;22.80;99.90;;;;;;5072868;28;20176;-72
2023/05/14 02:26:11;;;;;;;1.40;0.87;;;23.30;99.90;;;;;;5072613;28;20714;-71
2023/05/14 02:28:38;;;;;;;3.00;0.90;;;23.70;99.90;;;;;;5071041;28;20184;-72
2023/05/14 02:31:06;;;;;;;1.40;0.87;;;23.80;99.90;;;;;;5071933;28;20251;-70
2023/05/14 02:33:33;;;;;;;1.83;0.83;;;23.60;99.90;;;;;;5070713;28;20287;-72
2023/05/14 02:36:00;;;;;;;1.50;1.13;;;23.60;99.90;;;;;;5070526;28;20688;-73
2023/05/14 02:38:28;;;;;;;2.20;0.90;;;24.60;99.90;;;;;;5073234;28;20208;-71
2023/05/14 02:40:55;;;;;;;2.47;0.90;;;25.20;99.90;;;;;;5072757;28;20184;-71
2023/05/14 02:43:23;;;;;;;1.40;0.90;;;25.60;99.90;;;;;;5073192;28;20711;-70
2023/05/14 02:45:50;;;;;;;1.40;0.70;;;25.60;99.90;;;;;;5072999;28;20255;-71
2023/05/14 02:48:17;;;;;;;0.80;0.60;;;25.00;99.90;;;;;;5073454;28;20176;-72
2023/05/14 02:50:45;;;;;;;3.50;0.80;;;25.30;99.90;;;;;;5072067;28;20479;-68
2023/05/14 02:53:13;;;;;;;4.60;0.90;;;24.50;99.90;;;;;;5071843;28;20175;-71
2023/05/14 02:55:40;;;;;;;1.90;0.80;;;23.70;99.90;;;;;;5073287;28;20190;-70
2023/05/14 02:58:07;;;;;;;2.83;0.70;;;23.10;99.90;;;;;;5073152;28;20176;-70
2023/05/14 03:00:35;;;;;;;2.63;1.00;;;23.00;99.90;;;;;;5073006;28;20589;-70
2023/05/14 03:03:02;;;;;;;1.43;0.93;;;22.90;99.90;;;;;;5073377;28;20211;-70
2023/05/14 03:05:30;;;;;;;1.50;0.67;;;23.00;99.90;;;;;;5071857;28;20633;-70
2023/05/14 03:07:57;;;;;;;2.73;1.07;;;23.10;99.90;;;;;;5073201;28;20535;-70
2023/05/14 03:10:25;;;;;;;4.23;1.13;;;22.70;99.90;;;;;;5073372;28;20702;-69
2023/05/14 03:12:52;;;;;;;1.83;1.00;;;22.40;99.90;;;;;;5073041;28;20334;-70
2023/05/14 03:15:20;;;;;;;2.40;1.00;;;21.90;99.90;;;;;;5073799;28;20580;-70
2023/05/14 03:17:48;;;;;;;2.03;1.20;;;21.50;99.90;;;;;;5074768;28;20530;-70
2023/05/14 03:20:15;;;;;;;1.80;1.00;;;21.30;99.90;;;;;;5073235;28;20293;-71
2023/05/14 03:22:42;;;;;;;3.13;1.30;;;21.10;99.90;;;;;;5071565;28;20183;-70
2023/05/14 03:25:10;;;;;;;2.00;1.20;;;20.90;99.90;;;;;;5072922;28;20262;-70
2023/05/14 03:27:37;;;;;;;4.20;1.27;;;20.90;99.90;;;;;;5072995;28;20316;-69
2023/05/14 03:30:05;;;;;;;2.97;0.80;;;20.70;99.90;;;;;;5072832;28;20268;-70
2023/05/14 03:32:33;;;;;;;4.33;1.30;;;20.60;99.90;;;;;;5072810;28;20185;-69
2023/05/14 03:35:00;;;;;;;5.73;1.30;;;20.50;99.90;;;;;;5072935;28;20293;-70
2023/05/14 03:37:27;;;;;;;3.67;1.40;;;20.40;99.90;;;;;;5072830;28;20210;-70
2023/05/14 03:39:55;;;;;;;7.20;1.60;;;20.40;99.90;;;;;;5073122;28;20168;-69
2023/05/14 03:42:22;;;;;;;2.60;1.40;;;20.30;99.90;;;;;;5072714;28;20661;-70
2023/05/14 03:44:49;;;;;;;4.20;1.20;;;20.10;99.90;;;;;;5072641;28;20178;-70
2023/05/14 03:47:17;;;;;;;4.23;1.40;;;20.00;99.90;;;;;;5072521;28;20184;-70
2023/05/14 03:49:44;;;;;;;4.47;1.70;;;19.90;99.90;;;;;;5072608;28;20197;-69
2023/05/14 03:52:12;;;;;;;6.03;1.40;;;19.80;99.90;;;;;;5072832;28;20186;-71
2023/05/14 03:54:42;;;;;;;2.80;1.30;;;19.70;99.90;;;;;;5072817;28;20182;-70
2023/05/14 03:57:10;;;;;;;6.73;1.80;;;19.60;99.90;;;;;;5072579;28;20210;-71
2023/05/14 03:59:37;;;;;;;6.80;2.87;;;19.50;99.90;;;;;;5072822;28;20532;-69
2023/05/14 04:02:04;;;;;;;5.07;2.17;;;19.50;99.90;;;;;;5072657;28;20172;-71
2023/05/14 04:04:32;;;;;;;2.70;1.40;;;19.50;99.90;;;;;;5072906;28;20225;-70
2023/05/14 04:07:02;;;;;;;2.80;1.40;;;19.70;99.90;;;;;;5071220;28;20642;-69
2023/05/14 04:09:30;;;;;;;2.67;1.23;;;19.80;99.90;;;;;;5072494;28;20177;-71
2023/05/14 04:12:03;;;;;;;2.93;1.40;;;19.80;99.90;;;;;;5072807;28;20246;-71
2023/05/14 04:14:30;;;;;;;4.00;1.43;;;19.90;99.90;;;;;;5072630;28;20179;-70
2023/05/14 04:16:57;;;;;;;3.17;1.50;;;19.90;99.90;;;;;;5072471;28;20186;-69
2023/05/14 04:22:32;;;;;;;3.27;2.07;;;20.00;99.90;;;;;;5050017;28;20198;-68
2023/05/14 04:25:00;;;;;;;2.77;1.57;;;20.00;99.90;;;;;;5033557;28;20189;-70
2023/05/14 04:27:27;;;;;;;4.73;1.27;;;20.00;99.90;;;;;;5050258;28;20715;-69
2023/05/14 04:29:55;;;;;;;3.60;1.60;;;20.10;99.90;;;;;;5033317;28;20641;-69
2023/05/14 04:32:22;;;;;;;4.20;1.30;;;20.00;99.90;;;;;;5050045;28;20707;-71
2023/05/14 04:34:50;;;;;;;1.93;1.20;;;20.10;99.90;;;;;;5049822;28;20260;-69
2023/05/14 04:37:17;;;;;;;4.10;1.23;;;20.00;99.90;;;;;;5050036;28;20656;-70
2023/05/14 04:39:45;;;;;;;2.23;1.30;;;20.00;99.90;;;;;;5050050;28;20571;-70
2023/05/14 04:42:12;;;;;;;4.00;1.20;;;20.10;99.90;;;;;;5050144;28;20193;-69
2023/05/14 04:44:40;;;;;;;3.33;1.80;;;20.00;99.90;;;;;;5049748;28;20181;-71
2023/05/14 04:47:07;;;;;;;3.60;1.63;;;20.00;99.90;;;;;;5033490;28;20238;-70
2023/05/14 04:49:35;;;;;;;2.33;1.20;;;19.90;99.90;;;;;;5050008;28;20239;-71
2023/05/14 04:52:02;;;;;;;2.10;1.17;;;19.80;99.90;;;;;;5049784;28;20613;-70
2023/05/14 04:54:30;;;;;;;4.63;2.03;;;19.70;99.90;;;;;;5049942;28;20181;-70
2023/05/14 04:57:01;;;;;;;1.93;1.40;;;19.70;99.90;;;;;;5050165;28;20190;-71
2023/05/14 04:59:30;;;;;;;9.20;5.73;;;19.80;99.90;;;;;;5061118;28;20194;-69
2023/05/14 05:01:57;;;;;;;3.97;1.70;;;19.70;99.90;;;;;;5075523;28;20697;-70
2023/05/14 05:04:25;;;;;;;6.17;1.80;;;19.70;99.90;;;;;;5075370;28;20233;-69
2023/05/14 05:10:14;;;;;;;5.23;2.30;;;19.70;99.90;;;;;;5074834;28;20231;-69
2023/05/14 05:12:42;;;;;;;4.70;1.53;;;19.80;99.90;;;;;;5075603;28;20178;-70
2023/05/14 05:15:09;;;;;;;2.63;1.40;;;19.90;99.90;;;;;;5075279;28;20246;-69
2023/05/14 05:17:37;;;;;;;7.17;2.20;;;19.90;99.90;;;;;;5075385;28;20715;-69
2023/05/14 05:20:08;;;;;;;2.40;1.27;;;19.80;99.90;;;;;;5075090;28;20653;-70
2023/05/14 05:22:36;;;;;;;2.83;1.40;;;19.70;99.90;;;;;;5075130;28;20176;-70
2023/05/14 05:25:07;;;;;;;3.83;1.27;;;19.70;99.90;;;;;;5074945;28;20172;-70
2023/05/14 05:27:35;;;;;;;3.93;1.10;;;19.60;99.90;;;;;;5075031;28;20194;-70
2023/05/14 05:30:02;;;;;;;5.23;1.47;;;19.60;99.90;;;;;;5074845;28;20172;-70
2023/05/14 05:32:30;;;;;;;4.07;1.40;;;19.50;99.90;;;;;;5075107;28;20556;-70
2023/05/14 05:34:57;;;;;;;3.90;1.33;;;19.50;99.90;;;;;;5074671;28;20232;-69
2023/05/14 05:37:25;;;;;;;3.13;1.60;;;19.50;99.90;;;;;;5074851;28;20182;-70
2023/05/14 05:39:52;;;;;;;4.97;1.97;;;19.40;99.90;;;;;;5073562;28;20238;-69
2023/05/14 05:42:21;;;;;;;5.73;1.07;;;19.40;99.90;;;;;;5075023;28;20270;-70
2023/05/14 05:44:48;;;;;;;2.00;1.20;;;19.40;99.90;;;;;;5074830;28;20584;-70
2023/05/14 05:47:16;;;;;;;3.47;1.30;;;19.40;99.90;;;;;;5074482;28;20184;-69
2023/05/14 05:49:46;;;;;;;2.43;1.00;;;19.30;99.90;;;;;;5074518;28;20544;-70
2023/05/14 05:52:14;;;;;;;2.97;1.20;;;19.30;99.90;;;;;;5073735;28;20205;-71
2023/05/14 05:54:42;;;;;;;2.60;1.00;;;19.20;99.90;;;;;;5074565;28;20702;-70
2023/05/14 05:57:13;;;;;;;3.67;1.60;;;19.00;99.90;;;;;;5074681;28;20190;-69
2023/05/14 05:59:43;;;;;;;3.67;1.20;;;19.00;99.90;;;;;;5073641;28;20184;-70
2023/05/14 06:02:10;;;;;;;3.93;0.97;;;19.00;99.90;;;;;;5074660;28;20171;-70
2023/05/14 06:04:38;;;;;;;2.23;0.93;;;19.00;99.90;;;;;;5074422;28;20635;-70
2023/05/14 06:07:05;;;;;;;1.80;1.07;;;19.00;99.90;;;;;;5074239;28;20198;-70
2023/05/14 06:09:33;;;;;;;4.00;0.80;;;19.10;99.90;;;;;;5072972;28;20530;-70
2023/05/14 06:12:03;;;;;;;3.70;1.10;;;19.00;99.90;;;;;;5073584;28;20298;-70
2023/05/14 06:14:34;;;;;;;1.30;0.77;;;18.90;99.90;;;;;;5072807;28;20581;-69
2023/05/14 06:17:01;;;;;;;5.60;1.00;;;18.90;99.90;;;;;;5072813;28;20186;-70
2023/05/14 06:19:29;;;;;;;4.47;1.23;;;18.80;99.90;;;;;;5074338;28;20176;-70
2023/05/14 06:21:59;;;;;;;4.33;1.00;;;18.80;99.90;;;;;;5074143;28;20217;-68
2023/05/14 06:24:26;;;;;;;3.80;1.13;;;18.70;99.90;;;;;;5072714;28;20201;-70
2023/05/14 06:26:53;;;;;;;1.87;0.90;;;18.70;99.90;;;;;;5074021;28;20170;-70
2023/05/14 06:29:23;;;;;;;4.63;1.07;;;18.60;99.90;;;;;;5073657;28;20177;-69
2023/05/14 06:31:54;;;;;;;3.03;1.30;;;18.50;99.90;;;;;;5073724;28;20222;-69
2023/05/14 06:34:21;;;;;;;1.27;0.90;;;18.40;99.90;;;;;;5073692;28;20263;-69
2023/05/14 06:36:49;;;;;;;2.47;1.10;;;18.20;99.90;;;;;;5073853;28;20272;-71
2023/05/14 06:39:16;;;;;;;2.10;1.13;;;18.10;99.90;;;;;;5073929;28;20186;-69
2023/05/14 06:41:44;;;;;;;2.20;0.90;;;17.90;99.90;;;;;;5073525;28;20174;-70
2023/05/14 06:44:11;;;;;;;4.67;1.90;;;17.80;99.90;;;;;;5073753;28;20222;-70
2023/05/14 06:46:38;;;;;;;2.63;1.30;;;17.60;99.90;;;;;;5073454;28;20567;-69
2023/05/14 06:49:06;;;;;;;3.40;1.40;;;17.50;99.90;;;;;;5073469;28;20637;-70
2023/05/14 06:51:33;;;;;;;4.10;1.43;;;17.40;99.90;;;;;;5073667;28;20664;-70
2023/05/14 06:54:01;;;;;;;3.73;1.50;;;17.30;99.90;;;;;;5072399;28;20176;-69
2023/05/14 06:56:31;;;;;;;3.10;1.47;;;17.20;99.90;;;;;;5073616;28;20267;-70
2023/05/14 06:58:59;;;;;;;3.90;1.70;;;17.00;99.90;;;;;;5073864;28;20328;-69
2023/05/14 07:01:26;;;;;;;4.33;2.00;;;16.90;99.90;;;;;;5073682;28;20182;-70
2023/05/14 07:03:57;;;;;;;5.07;1.97;;;16.80;99.90;;;;;;5072138;28;20276;-69
2023/05/14 07:06:24;;;;;;;5.33;2.17;;;16.70;99.90;;;;;;5073176;28;20172;-69
2023/05/14 07:08:52;;;;;;;4.00;2.30;;;16.60;99.90;;;;;;5073423;28;20188;-70
2023/05/14 07:11:20;;;;;;;3.73;2.30;;;16.60;99.90;;;;;;5073209;28;20211;-70
2023/05/14 07:13:50;;;;;;;8.67;3.23;;;16.50;99.90;;;;;;5073298;28;20178;-70
2023/05/14 07:16:21;;;;;;;4.87;2.70;;;16.40;99.90;;;;;;5072183;28;20202;-70
2023/05/14 07:18:49;;;;;;;5.43;3.03;;;16.30;99.90;;;;;;5073079;28;20211;-70
2023/05/14 07:21:19;;;;;;;6.47;3.07;;;16.30;99.90;;;;;;5073491;28;20218;-70
2023/05/14 07:23:50;;;;;;;6.40;3.20;;;16.20;99.90;;;;;;5072535;28;20183;-68
2023/05/14 07:26:22;;;;;;;4.77;2.70;;;16.20;99.90;;;;;;5071700;28;20641;-69
2023/05/14 07:28:53;;;;;;;5.83;2.60;;;16.10;99.90;;;;;;5072499;28;20544;-70
2023/05/14 07:31:23;;;;;;;7.00;3.63;;;16.00;99.90;;;;;;5072636;28;20207;-68
2023/05/14 07:33:50;;;;;;;6.03;3.40;;;15.90;99.90;;;;;;5071746;28;20628;-69
2023/05/14 07:36:18;;;;;;;8.50;4.43;;;15.90;99.90;;;;;;5072898;28;20348;-69
2023/05/14 07:38:45;;;;;;;8.67;3.73;;;15.80;99.90;;;;;;5073065;28;20182;-69
2023/05/14 07:41:13;;;;;;;6.00;3.23;;;15.80;99.90;;;;;;5072690;28;20175;-69
2023/05/14 07:43:40;;;;;;;6.23;3.53;;;15.70;99.90;;;;;;5072677;28;20647;-69
2023/05/14 07:46:07;;;;;;;6.53;3.07;;;15.70;99.90;;;;;;5072859;28;20257;-69
2023/05/14 07:48:35;;;;;;;7.50;3.10;;;15.60;99.90;;;;;;5072637;28;20180;-69
2023/05/14 07:51:02;;;;;;;9.90;2.83;;;15.60;99.90;;;;;;5072669;28;20269;-69
2023/05/14 07:53:29;;;;;;;8.03;3.00;;;15.60;99.90;;;;;;5072553;28;20168;-69
2023/05/14 07:55:58;;;;;;;3.37;2.50;;;15.50;99.90;;;;;;5072575;28;20184;-69
2023/05/14 07:58:27;;;;;;;4.77;3.10;;;15.40;99.90;;;;;;5072607;28;20188;-69
2023/05/14 08:00:56;;;;;;;4.77;2.90;;;15.30;99.90;;;;;;5072610;28;20633;-70
2023/05/14 08:03:23;;;;;;;4.13;2.83;;;15.30;99.90;;;;;;5072670;28;20575;-68
2023/05/14 08:05:51;;;;;;;3.60;2.67;;;15.20;99.90;;;;;;5072627;28;20226;-69
2023/05/14 08:08:18;;;;;;;6.13;3.27;;;15.20;99.90;;;;;;5072723;28;20171;-69
2023/05/14 08:10:46;;;;;;;6.13;2.93;;;15.20;99.90;;;;;;5072731;28;20215;-69
2023/05/14 08:13:13;;;;;;;5.63;3.70;;;15.10;99.90;;;;;;5072843;28;20262;-69
2023/05/14 08:15:40;;;;;;;8.03;4.30;;;15.10;99.90;;;;;;5072499;28;20169;-69
2023/05/14 08:18:08;;;;;;;6.43;4.33;;;15.10;99.90;;;;;;5072862;28;20191;-70
2023/05/14 08:20:35;;;;;;;5.77;3.57;;;15.10;99.90;;;;;;5072433;28;20168;-70
2023/05/14 08:23:03;;;;;;;6.33;4.00;;;15.00;99.90;;;;;;5073219;28;20690;-69
2023/05/14 08:25:30;;;;;;;7.73;4.37;;;15.00;99.90;;;;;;5072402;28;20207;-69
2023/05/14 08:27:58;;;;;;;6.87;4.50;;;15.00;99.90;;;;;;5072539;28;20184;-69
2023/05/14 08:30:26;;;;;;;10.53;5.20;;;15.00;99.90;;;;;;5072351;28;20230;-70
2023/05/14 08:32:53;;;;;;;7.37;4.60;;;15.00;99.90;;;;;;5072416;28;20180;-69
2023/05/14 08:35:20;;;;;;;9.47;5.30;;;15.00;99.90;;;;;;5074973;28;20224;-69
2023/05/14 08:37:49;;;;;;;8.77;5.27;;;15.00;99.90;;;;;;5076128;28;20503;-69
2023/05/14 08:40:16;;;;;;;7.87;5.07;;;14.90;99.90;;;;;;5074860;28;20187;-69
2023/05/14 08:42:44;;;;;;;9.30;5.67;;;14.90;99.90;;;;;;5076115;28;20245;-69
2023/05/14 08:45:24;;;;;;;8.03;5.30;;;14.90;99.90;;;;;;5075885;28;20214;-69
2023/05/14 08:47:52;;;;;;;7.73;5.17;;;14.90;99.90;;;;;;5076156;28;20211;-69
2023/05/14 08:50:19;;;;;;;9.47;5.00;;;14.90;99.90;;;;;;5075994;28;20218;-69
2023/05/14 08:52:47;;;;;;;10.00;5.27;;;14.90;99.90;;;;;;5074523;28;20172;-69
2023/05/14 08:55:15;;;;;;;8.73;4.60;;;14.90;99.90;;;;;;5075774;28;20252;-69
2023/05/14 08:57:42;;;;;;;8.90;5.03;;;15.00;99.90;;;;;;5075847;28;20180;-69
2023/05/14 09:00:10;;;;;;;10.23;5.30;;;15.00;99.90;;;;;;5075832;28;20180;-69
2023/05/14 09:02:42;;;;;;;7.33;5.20;;;15.00;99.90;;;;;;5075725;28;20567;-69
2023/05/14 09:05:11;;;;;;;8.77;5.33;;;15.00;99.90;;;;;;5075647;28;20207;-70
2023/05/14 09:07:38;;;;;;;10.03;5.50;;;14.90;99.90;;;;;;5075723;28;20192;-69
2023/05/14 09:10:07;;;;;;;8.93;5.37;;;14.90;99.90;;;;;;5075673;28;20636;-69
2023/05/14 09:12:35;;;;;;;8.53;5.37;;;15.00;99.90;;;;;;5075642;28;20172;-69
2023/05/14 09:15:03;;;;;;;9.83;5.60;;;15.00;99.90;;;;;;5075589;28;20210;-69
2023/05/14 09:17:31;;;;;;;10.07;5.87;;;15.00;99.90;;;;;;5075252;28;20183;-71
2023/05/14 09:19:58;;;;;;;10.47;5.37;;;14.90;99.90;;;;;;5072969;28;20191;-71
2023/05/14 09:22:32;;;;;;;8.53;5.37;;;15.00;99.90;;;;;;5073668;28;20550;-71
2023/05/14 09:25:05;;;;;;;9.70;5.90;;;15.00;99.90;;;;;;5073425;28;20263;-73
2023/05/14 09:27:33;;;;;;;11.40;5.87;;;15.00;99.90;;;;;;5072330;28;20194;-73
2023/05/14 09:30:12;;;;;;;13.37;5.40;;;14.90;99.90;;;;;;5072702;28;20214;-72
2023/05/14 09:32:44;;;;;;;9.57;5.27;;;14.90;99.90;;;;;;5074023;28;20179;-73
2023/05/14 09:35:24;;;;;;;9.17;5.40;;;14.80;99.90;;;;;;5074300;28;20307;-73
2023/05/14 09:37:53;;;;;;;9.30;5.83;;;14.70;99.90;;;;;;5074905;28;20567;-74
2023/05/14 09:40:24;;;;;;;8.83;5.80;;;14.70;99.90;;;;;;5074371;28;20694;-72
2023/05/14 09:42:51;;;;;;;10.70;6.77;;;14.80;99.90;;;;;;5074116;28;20212;-73
2023/05/14 09:45:19;;;;;;;8.97;6.47;;;14.80;99.90;;;;;;5073350;28;20192;-72
2023/05/14 09:47:46;;;;;;;9.17;6.07;;;14.80;99.90;;;;;;5074109;28;20184;-71
2023/05/14 09:50:14;;;;;;;8.60;7.33;;;14.80;99.90;;;;;;5074187;28;20263;-74
2023/05/14 09:52:41;;;;;;;10.33;6.73;;;14.80;99.90;;;;;;5074327;28;20546;-73
2023/05/14 09:55:09;;;;;;;10.27;7.40;;;14.80;99.90;;;;;;5073985;28;20202;-74
2023/05/14 09:57:36;;;;;;;14.77;8.00;;;14.80;99.90;;;;;;5073688;28;20176;-73
2023/05/14 10:00:05;;;;;;;9.93;7.50;;;14.90;99.90;;;;;;5073301;28;20180;-73
2023/05/14 10:02:37;;;;;;;9.10;7.17;;;14.90;99.90;;;;;;5074324;28;20176;-74
2023/05/14 10:05:06;;;;;;;12.17;7.33;;;14.80;99.90;;;;;;5073532;28;20543;-72
2023/05/14 10:07:46;;;;;;;11.80;7.93;;;14.80;99.90;;;;;;5073988;28;20558;-73
2023/05/14 10:10:18;;;;;;;8.50;6.67;;;14.80;99.90;;;;;;5074005;28;20168;-74
2023/05/14 10:12:57;;;;;;;9.47;6.37;;;14.70;99.90;;;;;;5072573;28;20241;-74
2023/05/14 10:15:38;;;;;;;9.60;6.17;;;14.70;99.90;;;;;;5073863;28;20179;-73
2023/05/14 10:18:11;;;;;;;11.30;6.53;;;14.70;99.90;;;;;;5073758;28;20206;-72
2023/05/14 10:20:40;;;;;;;9.60;5.97;;;14.60;99.90;;;;;;5073986;28;20184;-73
2023/05/14 10:23:08;;;;;;;13.83;6.70;;;14.60;99.90;;;;;;5073677;28;20679;-74
2023/05/14 10:25:36;;;;;;;12.33;7.67;;;14.50;99.90;;;;;;5073481;28;20188;-73
2023/05/14 10:28:04;;;;;;;15.00;7.27;;;14.40;99.90;;;;;;5073783;28;20168;-72
2023/05/14 10:30:32;;;;;;;9.63;7.20;;;14.40;99.90;;;;;;5073674;28;20684;-73
2023/05/14 10:33:12;;;;;;;14.47;8.50;;;14.40;99.90;;;;;;5072800;28;20198;-73
2023/05/14 10:35:57;;;;;;;16.73;9.53;;;14.40;99.90;;;;;;5053697;28;20646;-72
2023/05/14 10:38:36;;;;;;;15.23;9.53;;;14.50;99.90;;;;;;5069218;28;20183;-73
2023/05/14 10:41:05;;;;;;;13.43;9.57;;;14.50;99.90;;;;;;5074595;28;20182;-73
2023/05/14 10:43:37;;;;;;;14.70;8.43;;;14.50;99.90;;;;;;5073500;28;20180;-73
2023/05/14 10:46:06;;;;;;;13.33;9.70;;;14.50;99.90;;;;;;5072734;28;20183;-74
2023/05/14 10:48:34;;;;;;;14.03;9.33;;;14.40;99.90;;;;;;5073166;28;20675;-73
2023/05/14 10:51:01;;;;;;;13.37;9.53;;;14.40;99.90;;;;;;5073066;28;20238;-73
2023/05/14 10:53:37;;;;;;;14.30;9.13;;;14.40;99.90;;;;;;5073123;28;20238;-73
2023/05/14 10:56:12;;;;;;;19.20;11.43;;;14.40;99.90;;;;;;5072773;28;20202;-74
2023/05/14 10:58:44;;;;;;;14.30;10.87;;;14.50;99.90;;;;;;5072665;28;20533;-74
2023/05/14 11:01:13;;;;;;;15.03;10.43;;;14.50;99.90;;;;;;5072418;28;20542;-74
2023/05/14 11:03:45;;;;;;;15.97;10.77;;;14.60;99.90;;;;;;5072552;28;20184;-74
2023/05/14 11:06:15;;;;;;;14.63;9.27;;;14.60;99.90;;;;;;5072144;28;20241;-73
2023/05/14 11:08:43;;;;;;;11.37;8.83;;;14.60;99.90;;;;;;5072495;28;20637;-73
2023/05/14 11:11:11;;;;;;;13.13;8.60;;;14.60;99.90;;;;;;5072523;28;20585;-74
2023/05/14 11:13:38;;;;;;;13.40;7.27;;;14.60;99.90;;;;;;5071151;28;20707;-74
2023/05/14 11:16:07;;;;;;;14.93;6.87;;;14.60;99.90;;;;;;5072034;28;20188;-73
2023/05/14 11:18:40;;;;;;;10.27;6.47;;;14.60;99.90;;;;;;5072738;28;20577;-74
2023/05/14 11:21:07;;;;;;;7.70;6.33;;;14.50;99.90;;;;;;5072602;28;20191;-74
2023/05/14 11:23:35;;;;;;;11.03;6.63;;;14.50;99.90;;;;;;5073022;28;20175;-72
2023/05/14 11:26:02;;;;;;;9.03;6.00;;;14.40;99.90;;;;;;5072771;28;20618;-73
2023/05/14 11:28:30;;;;;;;9.40;6.63;;;14.30;99.90;;;;;;5072399;28;20198;-71
2023/05/14 11:30:58;;;;;;;10.03;5.80;;;14.30;99.90;;;;;;5072100;28;20223;-71
2023/05/14 11:33:27;;;;;;;8.93;5.63;;;14.30;99.90;;;;;;5072722;28;20196;-72
2023/05/14 11:35:55;;;;;;;11.23;6.37;;;14.30;99.90;;;;;;5072261;28;20261;-72
2023/05/14 11:38:22;;;;;;;8.10;6.23;;;14.20;99.90;;;;;;5072501;28;20241;-72
2023/05/14 11:40:53;;;;;;;11.63;6.77;;;14.10;99.90;;;;;;5072475;28;20180;-74
2023/05/14 11:43:24;;;;;;;9.57;6.57;;;14.00;99.90;;;;;;5071266;28;20577;-72
2023/05/14 11:45:53;;;;;;;11.33;6.77;;;14.00;99.90;;;;;;5072635;28;20180;-73
2023/05/14 11:48:22;;;;;;;8.53;6.50;;;14.10;99.90;;;;;;5072253;28;20656;-73
2023/05/14 11:50:51;;;;;;;8.90;6.37;;;13.90;99.90;;;;;;5071989;28;20203;-72
2023/05/14 11:53:29;;;;;;;9.43;5.73;;;13.80;99.90;;;;;;5072679;28;20702;-73
2023/05/14 11:55:57;;;;;;;12.70;6.27;;;13.80;99.90;;;;;;5072342;28;20180;-73
2023/05/14 11:58:25;;;;;;;8.77;6.13;;;13.70;99.90;;;;;;5072626;28;20571;-74
2023/05/14 12:00:54;;;;;;;9.47;6.33;;;13.60;99.90;;;;;;5071588;28;20192;-71
2023/05/14 12:03:25;;;;;;;8.47;6.90;;;13.60;99.90;;;;;;5072437;28;20668;-74
2023/05/14 12:06:06;;;;;;;12.30;6.87;;;13.60;99.90;;;;;;5071841;28;20623;-73
2023/05/14 12:08:34;;;;;;;8.60;6.03;;;13.60;99.90;;;;;;5071986;28;20180;-73
2023/05/14 12:11:02;;;;;;;7.90;6.10;;;13.60;99.90;;;;;;5076011;28;20314;-71
2023/05/14 12:13:33;;;;;;;8.33;6.13;;;13.60;99.90;;;;;;5076120;28;20526;-73
2023/05/14 12:16:01;;;;;;;8.53;5.67;;;13.60;99.90;;;;;;5076140;28;20183;-74
2023/05/14 12:18:32;;;;;;;10.57;6.50;;;13.60;99.90;;;;;;5075687;28;20174;-73
2023/05/14 12:21:06;;;;;;;9.93;6.20;;;13.50;99.90;;;;;;5075598;28;20637;-72
2023/05/14 12:23:34;;;;;;;11.70;5.50;;;13.40;99.90;;;;;;5076311;28;20177;-72
2023/05/14 12:26:06;;;;;;;10.00;5.47;;;13.30;99.90;;;;;;5075275;28;20196;-72
2023/05/14 12:28:34;;;;;;;7.33;5.03;;;13.20;99.90;;;;;;5075717;28;20180;-71
2023/05/14 12:31:01;;;;;;;7.23;4.87;;;13.10;99.90;;;;;;5075257;28;20200;-72
2023/05/14 12:33:29;;;;;;;7.30;5.30;;;13.00;99.90;;;;;;5075758;28;20170;-72
2023/05/14 12:36:02;;;;;;;7.40;5.20;;;13.10;99.90;;;;;;5075112;28;20314;-72
2023/05/14 12:38:32;;;;;;;6.20;5.00;;;13.10;99.90;;;;;;5075753;28;20199;-70
2023/05/14 12:40:59;;;;;;;8.20;5.67;;;13.00;99.90;;;;;;5075223;28;20180;-73
2023/05/14 12:43:30;;;;;;;9.60;6.20;;;13.00;99.90;;;;;;5075750;28;20180;-71
2023/05/14 12:45:57;;;;;;;10.50;5.93;;;13.00;99.90;;;;;;5074802;28;20186;-71
2023/05/14 12:48:25;;;;;;;7.90;5.67;;;12.90;99.90;;;;;;5075434;28;20175;-71
2023/05/14 12:50:52;;;;;;;8.03;6.07;;;12.90;99.90;;;;;;5075331;28;20264;-73
2023/05/14 12:53:19;;;;;;;8.13;5.23;;;12.90;99.90;;;;;;5075097;28;20180;-71
2023/05/14 12:55:48;;;;;;;7.57;5.23;;;12.80;99.90;;;;;;5075402;28;20259;-73
2023/05/14 12:58:15;;;;;;;8.07;5.87;;;12.80;99.90;;;;;;5075702;28;20179;-72
2023/05/14 13:00:43;;;;;;;6.60;5.37;;;12.70;99.90;;;;;;5075448;28;20172;-72
2023/05/14 13:03:10;;;;;;;9.97;5.57;;;12.70;99.90;;;;;;5075579;28;20413;-74
2023/05/14 13:05:37;;;;;;;7.27;5.00;;;12.80;99.90;;;;;;5074779;28;20180;-73
2023/05/14 13:08:05;;;;;;;8.37;5.47;;;12.90;99.90;;;;;;5075328;28;20188;-74
2023/05/14 13:10:32;;;;;;;6.90;4.97;;;12.90;99.90;;;;;;5073159;28;20216;-73